CheckWX is a tool to help pilots better visualize weather data.  It is not intended as a substitute for an official pre-flight weather briefing.

00:20:25 UTC

UASP TAF
Pavlodar
Pavlodar, Kazakhstan
TAF UASP 252300Z 2600/2609 12005MPS 0600 FZFG OVC002 TEMPO 2600/2606 VRB01MPS 0200 VV001 FM260600 12005MPS 3100 BR FU BKN011 TEMPO 2606/2609 1100 BKN004

Mar-26@
00:00 UTC

Mar-26 @ 00:00 UTC

Mar-26@
06:00 UTC

Mar-26 @ 06:00 UTC

TAF UASP 252300Z 2600/2609 12005MPS 0600 FZFG OVC002
Wind
  • 120° at 10 KTS
Conditions
Freezing Fog
Cloud Levels
  • Overcast at 200' AGL

Mar-26@
00:00 UTC

Mar-26 @ 00:00 UTC

Mar-26@
06:00 UTC

Mar-26 @ 06:00 UTC

TEMPO 2600/2606 VRB01MPS 0200 VV001

Temporary

Temporary Changes expected for less than half the time period

Wind
  • Variable at 2 KTS
Cloud Levels
  • Vertical visibility at 100' AGL

Mar-26@
06:00 UTC

Mar-26 @ 06:00 UTC

Mar-26@
09:00 UTC

Mar-26 @ 09:00 UTC

FM260600 12005MPS 3100 BR FU BKN011

From

From Standard forecast or significant change

Wind
  • 120° at 10 KTS
Conditions
Mist, Smoke
Cloud Levels
  • Broken at 1,100' AGL

Mar-26@
06:00 UTC

Mar-26 @ 06:00 UTC

Mar-26@
09:00 UTC

Mar-26 @ 09:00 UTC

TEMPO 2606/2609 1100 BKN004

Temporary

Temporary Changes expected for less than half the time period

Cloud Levels
  • Broken at 400' AGL